Time;durP1;ratioP1;P1;durP2;ratioP2;P2;SDS_P1;SDS_P2;PMS_P1;PMS_P2;Temp;Humidity;BMP_temperature;BMP_pressure;BME280_temperature;BME280_humidity;BME280_pressure;Samples;Min_cycle;Max_cycle;Signal;HPM_P1;HPM_P2
2024/01/21 00:01:23;;;;;;;14.87;8.43;;;-2.10;99.90;;;;;;4995280;28;20616;-61
2024/01/21 00:03:49;;;;;;;15.80;8.90;;;-2.20;99.90;;;;;;5002099;28;20415;-59
2024/01/21 00:06:15;;;;;;;14.00;8.90;;;-2.10;99.90;;;;;;5008146;28;20462;-61
2024/01/21 00:08:40;;;;;;;17.10;9.43;;;-2.10;99.90;;;;;;5011126;28;20187;-59
2024/01/21 00:11:07;;;;;;;14.60;8.90;;;-2.30;99.90;;;;;;5009589;28;20176;-59
2024/01/21 00:13:33;;;;;;;10.67;8.70;;;-2.20;99.90;;;;;;5009053;28;20191;-61
2024/01/21 00:15:59;;;;;;;12.23;7.80;;;-2.30;99.90;;;;;;5012039;28;20446;-62
2024/01/21 00:18:24;;;;;;;12.13;7.80;;;-2.30;99.90;;;;;;5009403;28;20180;-59
2024/01/21 00:20:50;;;;;;;13.77;8.63;;;-2.40;99.90;;;;;;5012634;28;20172;-59
2024/01/21 00:23:16;;;;;;;11.00;8.13;;;-2.40;99.90;;;;;;5018004;28;20176;-63
2024/01/21 00:25:42;;;;;;;11.93;8.33;;;-2.40;99.90;;;;;;5008959;28;20216;-59
2024/01/21 00:28:07;;;;;;;11.30;7.10;;;-2.40;99.90;;;;;;5018100;28;20752;-57
2024/01/21 00:30:33;;;;;;;13.70;9.03;;;-2.40;99.90;;;;;;5016867;28;20178;-61
2024/01/21 00:32:58;;;;;;;13.00;9.63;;;-2.40;99.90;;;;;;5013384;28;20536;-60
2024/01/21 00:35:24;;;;;;;11.47;8.83;;;-2.40;99.90;;;;;;5016400;28;20298;-60
2024/01/21 00:37:50;;;;;;;13.90;9.50;;;-2.50;99.90;;;;;;5016039;28;20184;-62
2024/01/21 00:40:15;;;;;;;14.30;8.53;;;-2.50;99.90;;;;;;5019730;28;20274;-62
2024/01/21 00:42:41;;;;;;;12.93;8.43;;;-2.50;99.90;;;;;;5013205;28;20536;-60
2024/01/21 00:45:07;;;;;;;14.23;9.20;;;-2.60;99.90;;;;;;5013299;28;20200;-51
2024/01/21 00:47:33;;;;;;;13.70;9.50;;;-2.70;99.90;;;;;;5015072;28;20616;-51
2024/01/21 00:49:59;;;;;;;13.90;8.97;;;-2.70;99.90;;;;;;5013258;28;20502;-56
2024/01/21 00:52:25;;;;;;;11.57;6.73;;;-2.70;99.90;;;;;;5022071;28;20974;-56
2024/01/21 00:54:52;;;;;;;10.50;7.40;;;-2.70;99.90;;;;;;5019365;28;20415;-57
2024/01/21 00:57:18;;;;;;;17.60;9.00;;;-2.80;99.90;;;;;;5017137;28;20296;-57
2024/01/21 00:59:44;;;;;;;14.07;8.90;;;-2.80;99.90;;;;;;5013042;28;20464;-63
2024/01/21 01:02:10;;;;;;;11.93;9.03;;;-2.80;99.90;;;;;;5013557;28;20489;-60
2024/01/21 01:04:36;;;;;;;14.97;8.67;;;-2.80;99.90;;;;;;5012999;28;20180;-62
2024/01/21 01:07:01;;;;;;;17.40;9.23;;;-2.80;99.90;;;;;;5013397;28;20439;-60
2024/01/21 01:09:27;;;;;;;13.30;8.97;;;-2.80;99.90;;;;;;5010047;28;20184;-57
2024/01/21 01:11:52;;;;;;;9.43;7.53;;;-2.80;99.90;;;;;;5012732;28;20251;-59
2024/01/21 01:14:18;;;;;;;8.70;6.43;;;-2.80;99.90;;;;;;5012740;28;20648;-62
2024/01/21 01:16:43;;;;;;;15.83;8.60;;;-2.80;99.90;;;;;;5012603;28;20255;-59
2024/01/21 01:19:09;;;;;;;13.47;7.87;;;-2.80;99.90;;;;;;5019585;28;20195;-60
2024/01/21 01:21:35;;;;;;;13.03;8.03;;;-2.90;99.90;;;;;;5011715;28;20176;-62
2024/01/21 01:24:01;;;;;;;16.70;8.97;;;-2.80;99.90;;;;;;5017897;28;20223;-62
2024/01/21 01:26:26;;;;;;;11.77;8.47;;;-2.90;99.90;;;;;;5012412;28;20696;-61
2024/01/21 01:28:52;;;;;;;8.50;7.40;;;-2.90;99.90;;;;;;5012501;28;20423;-59
2024/01/21 01:31:18;;;;;;;10.93;7.13;;;-2.90;99.90;;;;;;5012399;28;20539;-60
2024/01/21 01:33:44;;;;;;;10.83;8.10;;;-2.90;99.90;;;;;;5004658;28;20234;-61
2024/01/21 01:36:10;;;;;;;12.30;8.87;;;-2.80;99.90;;;;;;5019103;28;20462;-59
2024/01/21 01:38:36;;;;;;;13.40;7.50;;;-2.90;99.90;;;;;;5008447;28;20208;-57
2024/01/21 01:41:02;;;;;;;10.80;7.77;;;-2.90;99.90;;;;;;5011986;28;20944;-58
2024/01/21 01:43:27;;;;;;;10.83;7.83;;;-2.90;99.90;;;;;;5011861;28;20164;-59
2024/01/21 01:45:53;;;;;;;13.67;8.57;;;-2.90;99.90;;;;;;5012048;28;20188;-60
2024/01/21 01:48:20;;;;;;;12.07;7.67;;;-2.90;99.90;;;;;;5011982;28;20198;-58
2024/01/21 01:50:46;;;;;;;10.10;7.17;;;-2.90;99.90;;;;;;5008589;28;20247;-60
2024/01/21 01:53:12;;;;;;;10.50;8.53;;;-3.00;99.90;;;;;;5011943;28;20422;-58
2024/01/21 01:55:38;;;;;;;12.43;6.60;;;-2.90;99.90;;;;;;5008644;28;20455;-58
2024/01/21 01:58:04;;;;;;;8.53;7.03;;;-3.00;99.90;;;;;;5011905;28;20441;-60
2024/01/21 02:00:30;;;;;;;12.50;8.37;;;-2.90;99.90;;;;;;5011820;28;20291;-59
2024/01/21 02:02:56;;;;;;;11.00;7.03;;;-2.90;99.90;;;;;;5011829;28;20422;-58
2024/01/21 02:05:22;;;;;;;11.77;7.00;;;-2.90;99.90;;;;;;5011392;28;20416;-60
2024/01/21 02:07:48;;;;;;;9.10;6.50;;;-3.00;99.90;;;;;;5008422;28;20446;-58
2024/01/21 02:10:13;;;;;;;13.20;8.57;;;-3.00;99.90;;;;;;5011238;28;20608;-58
2024/01/21 02:12:45;;;;;;;11.37;7.77;;;-2.90;99.90;;;;;;5011388;28;20188;-61
2024/01/21 02:15:14;;;;;;;9.90;7.50;;;-2.90;99.90;;;;;;5011394;28;20249;-58
2024/01/21 02:17:40;;;;;;;10.43;7.10;;;-2.90;99.90;;;;;;5011159;28;20464;-60
2024/01/21 02:20:07;;;;;;;17.20;7.40;;;-2.90;99.90;;;;;;5015592;28;20455;-59
2024/01/21 02:22:35;;;;;;;10.57;7.80;;;-2.90;99.90;;;;;;5009107;28;20941;-58
2024/01/21 02:25:01;;;;;;;9.80;6.27;;;-3.00;99.90;;;;;;5010917;28;20711;-57
2024/01/21 02:27:26;;;;;;;13.83;7.03;;;-3.00;99.90;;;;;;5011592;28;20524;-60
2024/01/21 02:29:52;;;;;;;10.97;7.50;;;-3.00;99.90;;;;;;5012650;28;20180;-60
2024/01/21 02:32:18;;;;;;;11.33;7.00;;;-3.00;99.90;;;;;;5010174;28;20648;-61
2024/01/21 02:34:43;;;;;;;12.40;6.83;;;-3.10;99.90;;;;;;5017980;28;20429;-60
2024/01/21 02:37:09;;;;;;;13.37;6.33;;;-3.10;99.90;;;;;;5010756;28;20215;-58
2024/01/21 02:39:35;;;;;;;11.20;8.87;;;-3.10;99.90;;;;;;5011796;28;20202;-58
2024/01/21 02:42:00;;;;;;;15.47;6.00;;;-3.10;99.90;;;;;;5016449;28;20203;-60
2024/01/21 02:44:26;;;;;;;9.73;6.03;;;-3.10;99.90;;;;;;5010915;28;20631;-59
2024/01/21 02:46:51;;;;;;;7.63;5.87;;;-3.20;99.90;;;;;;5010961;28;20188;-60
2024/01/21 02:49:17;;;;;;;7.87;6.53;;;-3.10;99.90;;;;;;5011054;28;20229;-56
2024/01/21 02:51:42;;;;;;;8.77;6.50;;;-3.10;99.90;;;;;;5010516;28;20246;-58
2024/01/21 02:54:08;;;;;;;10.00;7.47;;;-3.10;99.90;;;;;;5015330;28;20187;-60
2024/01/21 02:56:34;;;;;;;7.50;6.43;;;-3.10;99.90;;;;;;5008753;28;20203;-58
2024/01/21 02:58:59;;;;;;;10.07;6.30;;;-3.10;99.90;;;;;;5011304;28;20555;-61
2024/01/21 03:01:25;;;;;;;10.13;6.40;;;-3.20;99.90;;;;;;5008398;28;20718;-62
2024/01/21 03:03:51;;;;;;;11.07;6.73;;;-3.20;99.90;;;;;;5016623;28;20424;-58
2024/01/21 03:06:17;;;;;;;10.13;7.03;;;-3.30;99.90;;;;;;5021272;28;20188;-61
2024/01/21 03:08:43;;;;;;;13.00;6.77;;;-3.30;99.90;;;;;;5009037;28;20639;-59
2024/01/21 03:11:08;;;;;;;12.33;6.30;;;-3.30;99.90;;;;;;5020531;28;20429;-62
2024/01/21 03:13:34;;;;;;;9.63;7.10;;;-3.30;99.90;;;;;;5014705;28;20210;-58
2024/01/21 03:16:00;;;;;;;12.10;6.83;;;-3.30;99.90;;;;;;5017310;28;20784;-58
2024/01/21 03:18:26;;;;;;;9.80;6.23;;;-3.30;99.90;;;;;;5015468;28;20167;-59
2024/01/21 03:20:52;;;;;;;8.83;6.80;;;-3.30;99.90;;;;;;5018504;28;20407;-59
2024/01/21 03:23:18;;;;;;;8.27;5.03;;;-3.40;99.90;;;;;;5007582;28;20180;-59
2024/01/21 03:25:44;;;;;;;12.87;6.50;;;-3.40;99.90;;;;;;5017865;28;20195;-59
2024/01/21 03:28:10;;;;;;;9.30;6.40;;;-3.40;99.90;;;;;;5010418;28;20415;-58
2024/01/21 03:30:35;;;;;;;7.73;6.30;;;-3.40;99.90;;;;;;5010129;28;20176;-61
2024/01/21 03:33:01;;;;;;;8.57;5.70;;;-3.40;99.90;;;;;;5010453;28;20175;-60
2024/01/21 03:35:26;;;;;;;9.00;7.90;;;-3.40;99.90;;;;;;5016792;28;20238;-61
2024/01/21 03:37:52;;;;;;;8.40;6.27;;;-3.40;99.90;;;;;;5024282;28;20183;-61
2024/01/21 03:40:18;;;;;;;10.87;7.43;;;-3.30;99.90;;;;;;5009950;28;20300;-60
2024/01/21 03:42:45;;;;;;;11.53;6.33;;;-3.30;99.90;;;;;;5013660;28;20176;-60
2024/01/21 03:45:11;;;;;;;9.07;6.13;;;-3.20;99.90;;;;;;5024516;28;20388;-59
2024/01/21 03:47:37;;;;;;;12.50;6.53;;;-3.20;99.90;;;;;;5025645;28;20505;-60
2024/01/21 03:50:03;;;;;;;12.70;7.23;;;-3.20;99.90;;;;;;5010545;28;20903;-57
2024/01/21 03:52:29;;;;;;;8.37;6.20;;;-3.20;99.90;;;;;;5010287;28;20186;-59
2024/01/21 03:54:54;;;;;;;7.03;5.03;;;-3.20;99.90;;;;;;5014853;28;20929;-55
2024/01/21 03:57:20;;;;;;;10.40;6.20;;;-3.10;99.90;;;;;;5013232;28;20544;-58
2024/01/21 03:59:46;;;;;;;8.90;6.80;;;-3.10;99.90;;;;;;5009732;28;20212;-60
2024/01/21 04:02:11;;;;;;;9.30;6.43;;;-3.10;99.90;;;;;;5009649;28;20168;-60
2024/01/21 04:04:37;;;;;;;10.70;5.80;;;-3.10;99.90;;;;;;5009777;28;20210;-57
2024/01/21 04:07:03;;;;;;;9.27;6.43;;;-3.10;99.90;;;;;;5009975;28;20438;-56
2024/01/21 04:09:29;;;;;;;6.13;5.50;;;-3.10;99.90;;;;;;5017958;28;20642;-60
2024/01/21 04:11:54;;;;;;;10.73;6.47;;;-3.10;99.90;;;;;;5012284;28;20586;-61
2024/01/21 04:14:20;;;;;;;8.93;5.80;;;-3.10;99.90;;;;;;5023854;28;20916;-61
2024/01/21 04:16:45;;;;;;;10.23;6.30;;;-3.10;99.90;;;;;;5015450;28;20205;-59
2024/01/21 04:19:12;;;;;;;7.10;5.70;;;-3.10;99.90;;;;;;5014882;28;20200;-57
2024/01/21 04:21:37;;;;;;;7.77;5.80;;;-3.00;99.90;;;;;;5010977;28;20211;-60
2024/01/21 04:24:04;;;;;;;8.87;5.97;;;-3.00;99.90;;;;;;5014764;28;20432;-57
2024/01/21 04:26:30;;;;;;;5.97;4.83;;;-3.00;99.90;;;;;;5017359;28;20275;-59
2024/01/21 04:28:56;;;;;;;9.07;7.10;;;-2.90;99.90;;;;;;5008396;28;20499;-61
2024/01/21 04:31:21;;;;;;;5.57;5.07;;;-2.90;99.90;;;;;;5009492;28;20449;-59
2024/01/21 04:33:47;;;;;;;8.53;6.13;;;-2.90;99.90;;;;;;5009913;28;20200;-58
2024/01/21 04:36:18;;;;;;;6.80;6.10;;;-2.90;99.90;;;;;;5009894;28;20287;-61
2024/01/21 04:38:44;;;;;;;9.23;5.77;;;-2.90;99.90;;;;;;5011024;28;20247;-60
2024/01/21 04:41:11;;;;;;;7.87;6.43;;;-3.00;99.90;;;;;;5008034;28;20484;-59
2024/01/21 04:43:36;;;;;;;7.17;5.40;;;-2.90;99.90;;;;;;5009795;28;20404;-60
2024/01/21 04:46:02;;;;;;;7.30;5.57;;;-2.90;99.90;;;;;;5017639;28;20435;-61
2024/01/21 04:48:28;;;;;;;6.00;4.87;;;-2.90;99.90;;;;;;5017931;28;20200;-60
2024/01/21 04:50:53;;;;;;;7.57;5.73;;;-2.80;99.90;;;;;;5021049;28;20250;-57
2024/01/21 04:53:19;;;;;;;6.00;5.40;;;-2.70;99.90;;;;;;5012090;28;20182;-60
2024/01/21 04:55:44;;;;;;;8.40;6.10;;;-2.70;99.90;;;;;;5011361;28;20203;-58
2024/01/21 04:58:10;;;;;;;6.83;5.90;;;-2.80;99.90;;;;;;5012756;28;20256;-60
2024/01/21 05:00:36;;;;;;;8.83;6.33;;;-2.90;99.90;;;;;;5011147;28;20200;-58
2024/01/21 05:03:01;;;;;;;9.03;6.30;;;-2.80;99.90;;;;;;5009612;28;20183;-58
2024/01/21 05:05:27;;;;;;;10.07;5.40;;;-2.80;99.90;;;;;;5009328;28;20262;-58
2024/01/21 05:07:52;;;;;;;10.17;6.40;;;-2.80;99.90;;;;;;5009222;28;20169;-61
2024/01/21 05:10:18;;;;;;;6.20;5.10;;;-2.80;99.90;;;;;;5009044;28;20191;-56
2024/01/21 05:12:43;;;;;;;6.60;6.00;;;-2.80;99.90;;;;;;5009741;28;20520;-60
2024/01/21 05:15:09;;;;;;;8.07;5.80;;;-2.80;99.90;;;;;;5010270;28;20184;-58
2024/01/21 05:17:35;;;;;;;8.73;5.93;;;-2.80;99.90;;;;;;5021262;28;20634;-60
2024/01/21 05:20:00;;;;;;;8.77;6.37;;;-2.80;99.90;;;;;;5016405;28;20235;-59
2024/01/21 05:22:28;;;;;;;11.10;6.27;;;-2.70;99.90;;;;;;5023830;28;20229;-59
2024/01/21 05:24:53;;;;;;;9.93;5.60;;;-2.70;99.90;;;;;;5017888;28;20216;-60
2024/01/21 05:27:19;;;;;;;7.77;5.33;;;-2.60;99.90;;;;;;5018922;28;20509;-61
2024/01/21 05:29:45;;;;;;;10.83;6.57;;;-2.70;99.90;;;;;;5012408;28;20172;-60
2024/01/21 05:32:10;;;;;;;9.70;6.13;;;-2.60;99.90;;;;;;5012500;28;20653;-61
2024/01/21 05:34:36;;;;;;;12.03;6.70;;;-2.60;99.90;;;;;;5013108;28;20184;-58
2024/01/21 05:37:01;;;;;;;7.50;5.90;;;-2.60;99.90;;;;;;5015176;28;20232;-61
2024/01/21 05:39:27;;;;;;;7.60;6.03;;;-2.60;99.90;;;;;;5007917;28;20208;-60
2024/01/21 05:42:07;;;;;;;7.20;5.90;;;-2.50;99.90;;;;;;5020448;28;20180;-58
2024/01/21 05:44:33;;;;;;;9.87;6.73;;;-2.50;99.90;;;;;;5017187;28;20180;-59
2024/01/21 05:46:59;;;;;;;11.50;5.93;;;-2.50;99.90;;;;;;5016765;28;20443;-60
2024/01/21 05:49:25;;;;;;;8.83;5.87;;;-2.50;99.90;;;;;;5011997;28;20445;-57
2024/01/21 05:51:51;;;;;;;10.83;5.47;;;-2.40;99.90;;;;;;5014386;28;20199;-60
2024/01/21 05:54:17;;;;;;;8.10;5.33;;;-2.40;99.90;;;;;;5023547;28;20438;-60
2024/01/21 05:56:43;;;;;;;6.43;5.20;;;-2.40;99.90;;;;;;5019382;28;20222;-59
2024/01/21 05:59:09;;;;;;;10.40;6.40;;;-2.40;99.90;;;;;;5021071;28;20986;-57
2024/01/21 06:01:34;;;;;;;6.90;5.87;;;-2.40;99.90;;;;;;5018722;28;20175;-62
2024/01/21 06:04:00;;;;;;;6.53;5.70;;;-2.40;99.90;;;;;;5011791;28;20179;-59
2024/01/21 06:06:25;;;;;;;5.63;5.00;;;-2.40;99.90;;;;;;5012020;28;20711;-60
2024/01/21 06:08:51;;;;;;;10.47;6.03;;;-2.30;99.90;;;;;;5010463;28;20180;-56
2024/01/21 06:11:17;;;;;;;7.37;5.53;;;-2.40;99.90;;;;;;5011592;28;20258;-61
2024/01/21 06:13:43;;;;;;;6.87;5.00;;;-2.40;99.90;;;;;;5011681;28;20639;-59
2024/01/21 06:16:15;;;;;;;9.60;5.60;;;-2.30;99.90;;;;;;5011685;28;20442;-62
2024/01/21 06:18:40;;;;;;;7.70;6.17;;;-2.30;99.90;;;;;;5022751;28;20208;-62
2024/01/21 06:21:06;;;;;;;9.27;5.97;;;-2.30;99.90;;;;;;5011065;28;20419;-61
2024/01/21 06:23:31;;;;;;;6.20;5.20;;;-2.30;99.90;;;;;;5009648;28;20200;-59
2024/01/21 06:25:57;;;;;;;10.03;5.13;;;-2.30;99.90;;;;;;5008381;28;20244;-60
2024/01/21 06:28:22;;;;;;;5.57;5.10;;;-2.30;99.90;;;;;;5011263;28;20168;-61
2024/01/21 06:30:48;;;;;;;7.83;6.50;;;-2.30;99.90;;;;;;5021034;28;20251;-59
2024/01/21 06:33:14;;;;;;;8.00;5.90;;;-2.30;99.90;;;;;;5018878;28;20183;-58
2024/01/21 06:35:39;;;;;;;12.13;6.10;;;-2.30;99.90;;;;;;5019621;28;20709;-57
2024/01/21 06:38:05;;;;;;;5.63;4.97;;;-2.20;99.90;;;;;;5021395;28;20266;-56
2024/01/21 06:40:30;;;;;;;6.83;4.70;;;-2.20;99.90;;;;;;5011087;28;20203;-60
2024/01/21 06:42:56;;;;;;;8.67;6.27;;;-2.30;99.90;;;;;;5010967;28;20187;-56
2024/01/21 06:45:23;;;;;;;7.17;5.00;;;-2.20;99.90;;;;;;5009943;28;20674;-60
2024/01/21 06:47:48;;;;;;;7.33;5.70;;;-2.20;99.90;;;;;;5012519;28;20164;-60
2024/01/21 06:50:14;;;;;;;7.07;5.40;;;-2.20;99.90;;;;;;5004717;28;20746;-59
2024/01/21 06:52:39;;;;;;;8.40;6.20;;;-2.10;99.90;;;;;;5010979;28;20692;-62
2024/01/21 06:55:06;;;;;;;8.13;5.53;;;-2.10;99.90;;;;;;5018952;28;20548;-60
2024/01/21 06:57:32;;;;;;;7.33;5.90;;;-2.10;99.90;;;;;;5011066;28;20176;-61
2024/01/21 06:59:58;;;;;;;7.50;5.80;;;-2.10;99.90;;;;;;5012415;28;20479;-62
2024/01/21 07:02:23;;;;;;;8.53;6.80;;;-2.00;99.90;;;;;;5017042;28;20744;-59
2024/01/21 07:04:49;;;;;;;6.43;5.27;;;-2.00;99.90;;;;;;5024517;28;20189;-63
2024/01/21 07:07:15;;;;;;;9.60;5.30;;;-2.10;99.90;;;;;;5010558;28;20198;-61
2024/01/21 07:09:41;;;;;;;10.10;6.27;;;-2.00;99.90;;;;;;5010482;28;20182;-58
2024/01/21 07:12:08;;;;;;;8.37;5.60;;;-2.00;99.90;;;;;;5010948;28;20187;-61
2024/01/21 07:14:34;;;;;;;7.53;5.80;;;-1.90;99.90;;;;;;5010581;28;20445;-60
2024/01/21 07:17:01;;;;;;;10.93;5.97;;;-1.90;99.90;;;;;;5009766;28;20463;-62
2024/01/21 07:19:27;;;;;;;9.23;5.50;;;-1.90;99.90;;;;;;5016776;28;20462;-62
2024/01/21 07:21:52;;;;;;;9.00;5.60;;;-1.90;99.90;;;;;;5003067;28;20866;-60
2024/01/21 07:24:18;;;;;;;5.60;4.97;;;-1.90;99.90;;;;;;5001650;28;20670;-60
2024/01/21 07:26:43;;;;;;;7.40;5.27;;;-1.90;99.90;;;;;;5008520;28;20207;-63
2024/01/21 07:29:09;;;;;;;7.70;6.20;;;-1.80;99.90;;;;;;5010491;28;20418;-59
2024/01/21 07:31:35;;;;;;;9.20;5.90;;;-1.80;99.90;;;;;;5001946;28;20287;-60
2024/01/21 07:34:00;;;;;;;8.40;6.57;;;-1.70;99.90;;;;;;5001618;28;20172;-61
2024/01/21 07:36:26;;;;;;;6.63;6.03;;;-1.70;99.90;;;;;;5003538;28;20244;-60
2024/01/21 07:38:51;;;;;;;7.87;5.27;;;-1.70;99.90;;;;;;5004765;28;20200;-61
2024/01/21 07:41:17;;;;;;;8.20;4.37;;;-1.70;99.90;;;;;;5001461;28;20172;-60
2024/01/21 07:43:42;;;;;;;6.93;5.30;;;-1.60;99.90;;;;;;5009811;28;20176;-62
2024/01/21 07:46:08;;;;;;;7.03;5.60;;;-1.60;99.90;;;;;;5015074;28;20724;-62
2024/01/21 07:48:33;;;;;;;8.03;5.00;;;-1.60;99.90;;;;;;5010015;28;20200;-62
2024/01/21 07:50:59;;;;;;;11.17;5.07;;;-1.50;99.90;;;;;;5017216;28;20172;-61
2024/01/21 07:53:25;;;;;;;6.40;5.17;;;-1.50;99.90;;;;;;5011038;28;20164;-59
2024/01/21 07:55:53;;;;;;;8.40;5.63;;;-1.40;99.90;;;;;;5010783;28;20196;-61
2024/01/21 07:58:19;;;;;;;8.10;5.43;;;-1.40;99.90;;;;;;5012408;28;20492;-61
2024/01/21 08:00:45;;;;;;;6.97;5.60;;;-1.40;99.90;;;;;;5015000;28;20956;-59
2024/01/21 08:03:11;;;;;;;7.07;5.17;;;-1.40;99.90;;;;;;5014409;28;20411;-61
2024/01/21 08:05:37;;;;;;;5.53;4.77;;;-1.30;99.90;;;;;;5010177;28;20236;-61
2024/01/21 08:08:03;;;;;;;5.53;5.03;;;-1.30;99.90;;;;;;5013033;28;20418;-61
2024/01/21 08:10:29;;;;;;;8.30;6.20;;;-1.10;99.90;;;;;;5017944;28;20415;-61
2024/01/21 08:12:54;;;;;;;5.67;5.03;;;-1.00;99.90;;;;;;5018364;28;20498;-60
2024/01/21 08:15:20;;;;;;;6.00;5.00;;;-1.00;99.90;;;;;;5014019;28;20184;-59
2024/01/21 08:17:45;;;;;;;6.17;4.87;;;-0.90;99.90;;;;;;5007999;28;20180;-59
2024/01/21 08:20:11;;;;;;;7.83;5.40;;;-1.00;99.90;;;;;;5018569;28;20196;-61
2024/01/21 08:22:37;;;;;;;9.23;6.17;;;-0.80;99.90;;;;;;5009754;28;20230;-59
2024/01/21 08:25:04;;;;;;;10.30;5.50;;;-0.60;99.90;;;;;;5012148;28;20496;-62
2024/01/21 08:27:31;;;;;;;6.40;4.83;;;-0.60;99.90;;;;;;5007302;28;20545;-61
2024/01/21 08:29:56;;;;;;;6.30;4.90;;;-0.50;99.90;;;;;;5009394;28;20415;-61
2024/01/21 08:32:22;;;;;;;8.23;5.20;;;-0.50;99.90;;;;;;5009403;28;20938;-61
2024/01/21 08:34:48;;;;;;;5.70;4.40;;;-0.30;99.90;;;;;;5017703;28;20194;-61
2024/01/21 08:37:13;;;;;;;10.07;5.80;;;-0.30;99.90;;;;;;5009797;28;20212;-61
2024/01/21 08:39:39;;;;;;;5.77;4.33;;;-0.30;99.90;;;;;;5015599;28;20365;-61
2024/01/21 08:42:05;;;;;;;4.40;4.00;;;-0.20;99.90;;;;;;5011560;28;20211;-61
2024/01/21 08:44:30;;;;;;;5.07;4.57;;;-0.20;99.90;;;;;;5015305;28;20246;-61
2024/01/21 08:46:57;;;;;;;5.40;4.23;;;-0.20;99.90;;;;;;5022603;28;20438;-61
2024/01/21 08:49:23;;;;;;;6.40;4.63;;;-0.20;99.90;;;;;;5024844;28;20537;-61
2024/01/21 08:51:48;;;;;;;7.00;4.80;;;0.00;99.90;;;;;;5018867;28;20411;-60
2024/01/21 08:54:14;;;;;;;6.50;4.70;;;0.00;99.90;;;;;;5028781;28;20187;-61
2024/01/21 08:56:40;;;;;;;8.33;5.30;;;-0.20;99.90;;;;;;5021394;28;20208;-61
2024/01/21 08:59:05;;;;;;;5.07;4.67;;;-0.30;99.90;;;;;;5024110;28;20540;-63
2024/01/21 09:01:31;;;;;;;5.40;4.90;;;-0.10;99.90;;;;;;5013580;28;20250;-62
2024/01/21 09:03:56;;;;;;;6.27;4.73;;;0.10;99.90;;;;;;5014485;28;20203;-62
2024/01/21 09:06:22;;;;;;;6.00;4.30;;;0.10;99.90;;;;;;5019680;28;20197;-62
2024/01/21 09:08:52;;;;;;;8.20;5.03;;;0.10;99.90;;;;;;5013028;28;20257;-61
2024/01/21 09:11:18;;;;;;;5.00;4.60;;;0.10;99.90;;;;;;5014461;28;20183;-62
2024/01/21 09:13:43;;;;;;;5.00;4.40;;;0.20;99.90;;;;;;5010173;28;20439;-62
2024/01/21 09:16:09;;;;;;;5.83;3.53;;;0.30;99.90;;;;;;5020765;28;20443;-64
2024/01/21 09:18:35;;;;;;;5.77;3.90;;;0.40;99.90;;;;;;5022977;28;20539;-62
2024/01/21 09:21:01;;;;;;;4.60;4.20;;;0.40;99.90;;;;;;5022251;28;20168;-62
2024/01/21 09:23:26;;;;;;;6.10;3.97;;;0.40;99.90;;;;;;5022965;28;20469;-62
2024/01/21 09:25:52;;;;;;;5.73;5.00;;;0.50;99.90;;;;;;5017162;28;20192;-62
2024/01/21 09:28:18;;;;;;;7.50;4.53;;;0.60;99.90;;;;;;5017912;28;20260;-62
2024/01/21 09:30:43;;;;;;;6.73;4.30;;;0.50;99.90;;;;;;5011950;28;20172;-62
2024/01/21 09:33:09;;;;;;;5.97;4.17;;;0.50;99.90;;;;;;5012169;28;20938;-62
2024/01/21 09:35:35;;;;;;;5.13;4.40;;;0.60;99.90;;;;;;5012545;28;20215;-62
2024/01/21 09:38:00;;;;;;;5.57;4.37;;;0.70;99.90;;;;;;5020553;28;20180;-62
2024/01/21 09:40:26;;;;;;;6.97;3.93;;;0.70;99.90;;;;;;5012466;28;20206;-62
2024/01/21 09:42:52;;;;;;;6.37;4.17;;;0.70;99.90;;;;;;5012545;28;20175;-62
2024/01/21 09:45:21;;;;;;;3.83;3.43;;;0.70;99.90;;;;;;5015777;28;20414;-62
2024/01/21 09:47:49;;;;;;;7.27;4.37;;;0.70;99.90;;;;;;5009394;28;20181;-62
2024/01/21 09:50:17;;;;;;;5.90;3.53;;;0.80;99.90;;;;;;5003167;28;20407;-63
2024/01/21 09:52:43;;;;;;;6.50;5.10;;;0.80;99.90;;;;;;5020236;28;20410;-63
2024/01/21 09:55:09;;;;;;;3.70;3.40;;;0.80;99.90;;;;;;5023526;28;20417;-60
2024/01/21 09:57:36;;;;;;;5.43;3.93;;;0.80;99.90;;;;;;5024106;28;20698;-61
2024/01/21 10:00:02;;;;;;;5.00;3.70;;;0.80;99.90;;;;;;5023881;28;20247;-62
2024/01/21 10:02:30;;;;;;;6.90;4.03;;;0.80;99.90;;;;;;5016707;28;20441;-65
2024/01/21 10:04:55;;;;;;;4.17;3.60;;;0.90;99.60;;;;;;5012280;28;20503;-72
2024/01/21 10:07:23;;;;;;;3.63;3.33;;;1.00;99.80;;;;;;5015615;28;20848;-67
2024/01/21 10:09:55;;;;;;;6.80;3.83;;;1.00;98.90;;;;;;5024090;28;20167;-64
2024/01/21 10:12:24;;;;;;;3.97;3.63;;;1.00;98.60;;;;;;5015548;28;20410;-66
2024/01/21 10:14:50;;;;;;;6.77;3.70;;;1.00;97.40;;;;;;5016589;28;20510;-66
2024/01/21 10:17:22;;;;;;;6.37;3.07;;;1.00;97.50;;;;;;5011831;28;20640;-67
2024/01/21 10:19:49;;;;;;;5.10;3.80;;;1.00;97.50;;;;;;5012081;28;20694;-66
2024/01/21 10:22:16;;;;;;;9.30;5.10;;;0.90;96.50;;;;;;5026994;28;20404;-71
2024/01/21 10:24:46;;;;;;;4.63;3.40;;;1.00;97.10;;;;;;5012067;28;20478;-65
2024/01/21 10:27:13;;;;;;;4.67;3.00;;;1.10;97.10;;;;;;5019115;28;20847;-72
2024/01/21 10:29:41;;;;;;;4.77;3.10;;;1.10;96.30;;;;;;5017843;28;20435;-64
2024/01/21 10:32:09;;;;;;;3.90;3.60;;;1.20;96.10;;;;;;5012874;28;20423;-62
2024/01/21 10:34:45;;;;;;;3.90;3.20;;;1.20;96.00;;;;;;5025683;28;20415;-60
2024/01/21 10:37:15;;;;;;;5.63;3.30;;;1.30;95.60;;;;;;5011495;28;20528;-64
2024/01/21 10:39:44;;;;;;;3.13;2.60;;;1.30;95.80;;;;;;5011435;28;21030;-60
2024/01/21 10:42:11;;;;;;;9.90;3.23;;;1.40;96.20;;;;;;5020545;28;20422;-64
2024/01/21 10:44:38;;;;;;;5.10;3.83;;;1.50;95.70;;;;;;5024733;28;20805;-62
2024/01/21 10:47:07;;;;;;;3.33;3.07;;;1.60;95.10;;;;;;5011774;28;20454;-62
2024/01/21 10:49:33;;;;;;;4.17;3.63;;;1.70;95.10;;;;;;5017293;28;20415;-62
2024/01/21 10:51:59;;;;;;;3.97;3.50;;;1.60;94.50;;;;;;5015273;28;20438;-61
2024/01/21 10:54:29;;;;;;;4.30;3.33;;;1.60;94.20;;;;;;5023093;28;20407;-61
2024/01/21 10:56:55;;;;;;;4.90;3.13;;;1.60;94.00;;;;;;5012352;28;20439;-62
2024/01/21 10:59:21;;;;;;;5.47;3.20;;;1.60;94.60;;;;;;5024038;28;20457;-64
2024/01/21 11:01:48;;;;;;;4.83;3.33;;;1.60;94.40;;;;;;5018455;28;20422;-61
2024/01/21 11:04:14;;;;;;;5.17;3.03;;;1.60;94.70;;;;;;5014742;28;20175;-62
2024/01/21 11:06:48;;;;;;;10.50;3.70;;;1.60;95.40;;;;;;5017436;28;20456;-61
2024/01/21 11:09:22;;;;;;;3.13;2.83;;;1.70;94.60;;;;;;5023398;28;20175;-62
2024/01/21 11:11:50;;;;;;;4.00;2.70;;;1.80;94.70;;;;;;5014900;28;20495;-63
2024/01/21 11:14:36;;;;;;;7.60;3.40;;;1.90;94.60;;;;;;5013225;28;20542;-61
2024/01/21 11:17:04;;;;;;;2.93;2.63;;;1.90;94.00;;;;;;5011703;28;20459;-60
2024/01/21 11:19:52;;;;;;;3.10;2.77;;;1.90;93.50;;;;;;5010876;28;20542;-61
2024/01/21 11:22:25;;;;;;;4.10;3.70;;;2.00;94.00;;;;;;5013182;28;20411;-60
2024/01/21 11:24:53;;;;;;;3.07;2.67;;;2.00;93.80;;;;;;5015993;28;20412;-61
2024/01/21 11:27:21;;;;;;;5.07;3.43;;;1.90;94.10;;;;;;5004657;28;20446;-61
2024/01/21 11:29:52;;;;;;;5.53;3.87;;;2.10;94.10;;;;;;5012364;28;20449;-60
2024/01/21 11:32:29;;;;;;;4.03;3.07;;;2.10;93.90;;;;;;4999818;28;20506;-62
2024/01/21 11:34:55;;;;;;;3.40;2.73;;;2.10;93.30;;;;;;4999587;28;20418;-62
2024/01/21 11:37:22;;;;;;;4.47;3.57;;;2.20;93.40;;;;;;5003934;28;20553;-60
2024/01/21 11:39:49;;;;;;;4.93;3.67;;;2.30;93.80;;;;;;4999655;28;20455;-62
2024/01/21 11:42:16;;;;;;;5.97;3.10;;;2.30;92.90;;;;;;4998332;28;20877;-62
2024/01/21 11:44:42;;;;;;;3.27;2.60;;;2.30;93.10;;;;;;4996842;28;20540;-64
2024/01/21 11:47:08;;;;;;;5.70;3.00;;;2.40;92.80;;;;;;4997733;28;20234;-61
2024/01/21 11:49:35;;;;;;;3.40;3.10;;;2.50;92.50;;;;;;5002267;28;20185;-62
2024/01/21 11:52:05;;;;;;;3.63;3.30;;;2.40;91.30;;;;;;5003368;28;20424;-63
2024/01/21 11:54:32;;;;;;;2.47;2.23;;;2.50;90.50;;;;;;5002397;28;20423;-61
2024/01/21 11:56:58;;;;;;;3.60;2.70;;;2.70;90.70;;;;;;4995637;28;20915;-65
2024/01/21 11:59:24;;;;;;;7.93;2.77;;;2.70;89.70;;;;;;4995305;28;20466;-62
2024/01/21 12:01:53;;;;;;;3.70;2.83;;;2.70;87.80;;;;;;5000310;28;20411;-65
2024/01/21 12:04:19;;;;;;;5.17;3.30;;;2.80;89.00;;;;;;5000518;28;20411;-63
2024/01/21 12:06:47;;;;;;;6.83;2.70;;;2.80;85.40;;;;;;5000712;28;20448;-62
2024/01/21 12:09:14;;;;;;;5.13;2.60;;;2.80;84.80;;;;;;5005555;28;20180;-62
2024/01/21 12:11:40;;;;;;;3.17;2.57;;;2.90;83.90;;;;;;5004907;28;20755;-62
2024/01/21 12:14:14;;;;;;;3.80;2.63;;;2.80;82.30;;;;;;4999813;28;20706;-63
2024/01/21 12:16:41;;;;;;;5.30;3.10;;;2.90;83.10;;;;;;5003558;28;20435;-63
2024/01/21 12:19:08;;;;;;;12.10;2.80;;;2.80;82.20;;;;;;5003234;28;20463;-63
2024/01/21 12:21:33;;;;;;;7.30;3.13;;;2.90;83.60;;;;;;5003826;28;20419;-61
2024/01/21 12:24:02;;;;;;;4.13;2.97;;;2.80;82.60;;;;;;4999399;28;20431;-60
2024/01/21 12:26:28;;;;;;;5.20;3.00;;;2.90;83.80;;;;;;4997956;28;20276;-61
2024/01/21 12:29:02;;;;;;;6.00;2.67;;;2.90;84.50;;;;;;5000010;28;20546;-61
2024/01/21 12:31:36;;;;;;;6.30;2.67;;;2.90;84.60;;;;;;5000554;28;20764;-61
2024/01/21 12:34:03;;;;;;;4.23;2.73;;;2.90;83.60;;;;;;5012820;28;20418;-61
2024/01/21 12:36:44;;;;;;;5.03;2.97;;;2.90;85.50;;;;;;5003559;28;20822;-61
2024/01/21 12:39:11;;;;;;;5.57;2.70;;;2.90;84.20;;;;;;4997814;28;20506;-62
2024/01/21 12:41:37;;;;;;;3.70;2.50;;;2.90;84.60;;;;;;5000817;28;20895;-62